Time;durP1;ratioP1;P1;durP2;ratioP2;P2;SDS_P1;SDS_P2;PMS_P1;PMS_P2;Temp;Humidity;BMP_temperature;BMP_pressure;BME280_temperature;BME280_humidity;BME280_pressure;Samples;Min_cycle;Max_cycle;Signal;HPM_P1;HPM_P2
2022/08/19 00:01:38;;;;;;;8.73;5.72;;;15.70;99.90;;;;;;6175658;23;20028;-84
2022/08/19 00:04:06;;;;;;;7.95;5.50;;;15.60;99.90;;;;;;6176255;22;20021;-84
2022/08/19 00:06:33;;;;;;;7.75;4.70;;;15.60;99.90;;;;;;6174651;22;20112;-84
2022/08/19 00:09:00;;;;;;;8.77;5.45;;;15.60;99.90;;;;;;6174631;22;20017;-85
2022/08/19 00:11:27;;;;;;;8.25;5.30;;;15.70;99.90;;;;;;6176552;23;20017;-85
2022/08/19 00:13:54;;;;;;;10.20;6.10;;;15.60;99.90;;;;;;6174245;23;20031;-84
2022/08/19 00:16:21;;;;;;;9.27;5.88;;;15.60;99.90;;;;;;6174050;22;20025;-84
2022/08/19 00:18:48;;;;;;;8.80;5.45;;;15.50;99.90;;;;;;6173883;23;20509;-85
2022/08/19 00:21:14;;;;;;;10.02;5.57;;;15.50;99.90;;;;;;6176450;23;20028;-84
2022/08/19 00:23:40;;;;;;;8.73;4.97;;;15.50;99.90;;;;;;6176418;23;20009;-84
2022/08/19 00:26:07;;;;;;;8.27;5.20;;;15.50;99.90;;;;;;6176230;22;20021;-84
2022/08/19 00:28:34;;;;;;;9.15;5.13;;;15.50;99.90;;;;;;6175905;22;20013;-84
2022/08/19 00:30:59;;;;;;;8.18;5.25;;;15.50;99.90;;;;;;6174232;23;20017;-84
2022/08/19 00:33:25;;;;;;;10.30;5.97;;;15.40;99.90;;;;;;6174186;23;20024;-84
2022/08/19 00:35:51;;;;;;;6.97;4.30;;;15.40;99.90;;;;;;6149402;23;20022;-84
2022/08/19 00:38:16;;;;;;;9.02;5.45;;;15.40;99.90;;;;;;6174403;23;20468;-84
2022/08/19 00:40:46;;;;;;;9.75;5.57;;;15.40;99.90;;;;;;6149219;23;20025;-84
2022/08/19 00:43:15;;;;;;;8.68;5.32;;;15.40;99.90;;;;;;6174655;22;20013;-84
2022/08/19 00:45:43;;;;;;;8.93;5.28;;;15.40;99.90;;;;;;6175053;23;20395;-84
2022/08/19 00:48:09;;;;;;;7.65;5.25;;;15.40;99.90;;;;;;6174364;23;20036;-84
2022/08/19 00:50:35;;;;;;;8.40;5.28;;;15.30;99.90;;;;;;6175500;22;20013;-84
2022/08/19 00:53:03;;;;;;;10.23;6.38;;;15.30;99.90;;;;;;6175704;23;20025;-84
2022/08/19 00:55:32;;;;;;;8.10;5.63;;;15.30;99.90;;;;;;6149212;23;20084;-84
2022/08/19 00:58:12;;;;;;;8.38;5.95;;;15.30;99.90;;;;;;6150098;23;20108;-84
2022/08/19 01:00:38;;;;;;;9.10;6.10;;;15.30;99.90;;;;;;6149349;23;20093;-84
2022/08/19 01:03:07;;;;;;;8.90;6.63;;;15.30;99.90;;;;;;6175901;23;20025;-84
2022/08/19 01:05:33;;;;;;;10.23;5.97;;;15.30;99.90;;;;;;6175387;23;20021;-84
2022/08/19 01:08:02;;;;;;;9.50;5.88;;;15.30;99.90;;;;;;6176557;23;20056;-84
2022/08/19 01:10:32;;;;;;;11.18;6.57;;;15.30;99.90;;;;;;6175854;23;20025;-84
2022/08/19 01:12:59;;;;;;;9.35;6.53;;;15.20;99.90;;;;;;6149008;23;20025;-84
2022/08/19 01:15:30;;;;;;;11.65;6.45;;;15.20;99.90;;;;;;6149590;23;20122;-84
2022/08/19 01:17:59;;;;;;;9.80;6.40;;;15.20;99.90;;;;;;6175681;23;20009;-84
2022/08/19 01:20:25;;;;;;;9.82;6.22;;;15.10;99.90;;;;;;6149725;23;20512;-84
2022/08/19 01:22:57;;;;;;;9.80;5.95;;;15.50;99.90;;;;;;6175346;23;20040;-84
2022/08/19 01:25:39;;;;;;;9.85;6.30;;;15.10;99.90;;;;;;6175938;23;20013;-84
2022/08/19 01:28:05;;;;;;;9.88;6.88;;;15.10;99.90;;;;;;6148861;23;20048;-85
2022/08/19 01:30:33;;;;;;;12.23;7.28;;;15.10;99.90;;;;;;6176128;23;20027;-84
2022/08/19 01:33:00;;;;;;;11.85;7.40;;;15.10;99.90;;;;;;6124770;23;20009;-84
2022/08/19 01:35:28;;;;;;;12.77;7.80;;;15.10;99.90;;;;;;6176113;23;20024;-85
2022/08/19 01:38:07;;;;;;;9.75;6.55;;;15.10;99.90;;;;;;6175470;23;20013;-84
2022/08/19 01:40:35;;;;;;;9.32;7.07;;;15.00;99.90;;;;;;6149225;23;20028;-85
2022/08/19 01:43:01;;;;;;;11.75;8.07;;;15.00;99.90;;;;;;6148788;23;20059;-84
2022/08/19 01:45:29;;;;;;;12.73;7.70;;;15.00;99.90;;;;;;6124433;23;20017;-84
2022/08/19 01:47:56;;;;;;;12.35;7.85;;;15.00;99.90;;;;;;6175436;23;20019;-84
2022/08/19 01:50:22;;;;;;;11.98;7.95;;;15.00;99.90;;;;;;6163077;23;20450;-84
2022/08/19 01:52:48;;;;;;;11.02;7.93;;;15.00;99.90;;;;;;6175416;23;20017;-84
2022/08/19 01:55:18;;;;;;;11.63;7.88;;;15.10;99.90;;;;;;6174343;23;20071;-84
2022/08/19 01:57:51;;;;;;;12.70;8.30;;;14.90;99.90;;;;;;6147418;22;20032;-84
2022/08/19 02:00:19;;;;;;;11.27;7.00;;;14.90;99.90;;;;;;6174042;22;20455;-84
2022/08/19 02:02:44;;;;;;;12.23;7.32;;;14.90;99.90;;;;;;6173244;22;20013;-84
2022/08/19 02:05:11;;;;;;;14.93;8.15;;;14.90;99.90;;;;;;6149460;23;20411;-84
2022/08/19 02:07:38;;;;;;;12.65;7.65;;;14.90;99.90;;;;;;6173196;22;20014;-84
2022/08/19 02:10:07;;;;;;;11.07;7.82;;;14.80;99.90;;;;;;6174129;22;20066;-84
2022/08/19 02:12:33;;;;;;;12.73;7.65;;;14.80;99.90;;;;;;6172951;22;20021;-84
2022/08/19 02:15:00;;;;;;;11.90;7.72;;;14.80;99.90;;;;;;6173649;23;20024;-84
2022/08/19 02:17:28;;;;;;;11.48;7.65;;;14.80;99.90;;;;;;6173968;22;20101;-84
2022/08/19 02:19:53;;;;;;;11.35;7.35;;;14.80;99.90;;;;;;6175705;22;20017;-84
2022/08/19 02:22:19;;;;;;;10.52;7.25;;;14.70;99.90;;;;;;6149014;23;20078;-84
2022/08/19 02:24:45;;;;;;;12.57;8.13;;;14.80;99.90;;;;;;6173536;23;20023;-84
2022/08/19 02:27:11;;;;;;;12.18;8.55;;;14.70;99.90;;;;;;6173124;23;20387;-84
2022/08/19 02:29:36;;;;;;;11.18;7.68;;;14.70;99.90;;;;;;6175341;23;20332;-84
2022/08/19 02:32:04;;;;;;;8.85;6.68;;;14.70;99.90;;;;;;6173556;23;20071;-85
2022/08/19 02:34:30;;;;;;;14.07;8.05;;;14.70;99.90;;;;;;6173526;23;20020;-84
2022/08/19 02:36:55;;;;;;;10.07;6.80;;;15.20;99.90;;;;;;6173389;23;20025;-84
2022/08/19 02:39:21;;;;;;;10.35;7.05;;;14.70;99.90;;;;;;6175191;23;20036;-84
2022/08/19 02:41:46;;;;;;;16.58;7.40;;;14.70;99.90;;;;;;6148123;23;20062;-84
2022/08/19 02:44:12;;;;;;;9.73;7.22;;;14.70;99.90;;;;;;6173664;23;20021;-84
2022/08/19 02:46:38;;;;;;;10.73;6.68;;;14.60;99.90;;;;;;6174862;23;20021;-84
2022/08/19 02:49:06;;;;;;;10.77;6.15;;;14.60;99.90;;;;;;6173362;22;20014;-85
2022/08/19 02:51:38;;;;;;;13.25;7.05;;;14.60;99.90;;;;;;6175283;23;20073;-84
2022/08/19 02:54:05;;;;;;;10.50;6.95;;;14.80;99.90;;;;;;6148199;23;20032;-84
2022/08/19 02:56:33;;;;;;;9.70;6.93;;;14.60;99.90;;;;;;6174791;23;20051;-84
2022/08/19 02:58:59;;;;;;;13.48;6.43;;;14.60;99.90;;;;;;6124221;23;20013;-84
2022/08/19 03:01:24;;;;;;;9.73;5.43;;;14.80;99.90;;;;;;6148937;23;20075;-84
2022/08/19 03:03:50;;;;;;;10.07;5.32;;;14.60;99.90;;;;;;6148457;23;20082;-84
2022/08/19 03:06:16;;;;;;;9.18;4.97;;;14.60;99.90;;;;;;6174951;23;20017;-84
2022/08/19 03:08:44;;;;;;;11.10;6.88;;;14.40;99.90;;;;;;6148747;23;20429;-84
2022/08/19 03:11:19;;;;;;;8.05;5.63;;;14.50;99.90;;;;;;6149745;23;20013;-84
2022/08/19 03:13:45;;;;;;;11.10;6.15;;;14.50;99.90;;;;;;6176210;23;20032;-84
2022/08/19 03:16:12;;;;;;;8.30;5.55;;;14.50;99.90;;;;;;6125588;23;20025;-84
2022/08/19 03:18:38;;;;;;;11.60;6.93;;;14.50;99.90;;;;;;6124825;23;20088;-84
2022/08/19 03:21:04;;;;;;;8.73;6.40;;;14.40;99.90;;;;;;6125583;23;20106;-84
2022/08/19 03:23:30;;;;;;;9.43;6.63;;;14.40;99.90;;;;;;6175659;23;20103;-84
2022/08/19 03:25:56;;;;;;;10.40;6.57;;;14.40;99.90;;;;;;6150104;23;20056;-84
2022/08/19 03:28:21;;;;;;;12.45;8.02;;;14.40;99.90;;;;;;6125046;23;20360;-84
2022/08/19 03:31:00;;;;;;;12.20;8.63;;;14.40;99.90;;;;;;6176111;23;20017;-84
2022/08/19 03:33:26;;;;;;;11.82;7.53;;;14.40;99.90;;;;;;6176616;23;20059;-84
2022/08/19 03:36:07;;;;;;;10.90;7.10;;;14.40;99.90;;;;;;6149868;23;20765;-84
2022/08/19 03:38:33;;;;;;;10.13;6.68;;;14.40;99.90;;;;;;6175683;23;20017;-84
2022/08/19 03:41:02;;;;;;;11.23;7.05;;;14.40;99.90;;;;;;6150451;23;20094;-84
2022/08/19 03:43:28;;;;;;;12.82;6.68;;;14.40;99.90;;;;;;6149914;23;20025;-84
2022/08/19 03:46:03;;;;;;;11.35;7.80;;;14.30;99.90;;;;;;6176190;23;20024;-84
2022/08/19 03:48:30;;;;;;;11.02;7.28;;;14.30;99.90;;;;;;6149809;23;20142;-84
2022/08/19 03:50:57;;;;;;;12.63;7.70;;;14.20;99.90;;;;;;6170379;23;20013;-84
2022/08/19 03:53:22;;;;;;;13.70;8.18;;;14.20;99.90;;;;;;6149756;23;20048;-84
2022/08/19 03:55:48;;;;;;;11.85;8.43;;;14.20;99.90;;;;;;6174019;23;20067;-84
2022/08/19 03:58:14;;;;;;;10.50;7.35;;;14.20;99.90;;;;;;6174545;23;20078;-84
2022/08/19 04:00:42;;;;;;;13.15;7.32;;;14.20;99.90;;;;;;6174029;22;20017;-84
2022/08/19 04:03:08;;;;;;;10.80;7.28;;;14.20;99.90;;;;;;6176835;22;20066;-84
2022/08/19 04:05:33;;;;;;;12.10;8.40;;;14.20;99.90;;;;;;6176128;23;20459;-84
2022/08/19 04:08:00;;;;;;;11.52;7.50;;;14.20;99.90;;;;;;6173990;23;20064;-84
2022/08/19 04:10:27;;;;;;;14.10;9.05;;;14.20;99.90;;;;;;6176372;23;20017;-84
2022/08/19 04:12:52;;;;;;;12.32;7.28;;;14.10;99.90;;;;;;6176077;22;20017;-84
2022/08/19 04:15:18;;;;;;;12.73;9.07;;;14.20;99.90;;;;;;6149779;23;20021;-84
2022/08/19 04:17:44;;;;;;;10.82;7.63;;;14.10;99.90;;;;;;6174023;23;20049;-84
2022/08/19 04:20:10;;;;;;;11.52;7.70;;;14.10;99.90;;;;;;6176076;23;20040;-84
2022/08/19 04:22:35;;;;;;;14.30;8.48;;;14.10;99.90;;;;;;6173600;23;20056;-84
2022/08/19 04:25:01;;;;;;;13.10;8.57;;;14.10;99.90;;;;;;6174332;23;20032;-85
2022/08/19 04:27:27;;;;;;;13.20;8.18;;;14.10;99.90;;;;;;6176208;23;20078;-84
2022/08/19 04:29:54;;;;;;;10.73;7.35;;;14.20;99.90;;;;;;6176035;23;20032;-84
2022/08/19 04:32:20;;;;;;;10.93;7.65;;;14.20;99.90;;;;;;6174656;23;20021;-84
2022/08/19 04:34:46;;;;;;;11.57;7.07;;;14.10;99.90;;;;;;6173983;23;20476;-84
2022/08/19 04:37:12;;;;;;;12.80;7.82;;;14.20;99.90;;;;;;6174105;23;20036;-84
2022/08/19 04:42:38;;;;;;;13.88;8.00;;;14.10;99.90;;;;;;6176092;22;20453;-84
2022/08/19 04:45:06;;;;;;;13.18;8.15;;;14.20;99.90;;;;;;6149621;23;20021;-84
2022/08/19 04:47:32;;;;;;;9.90;6.22;;;14.20;99.90;;;;;;6176384;22;20025;-84
2022/08/19 04:49:58;;;;;;;13.57;8.32;;;14.20;99.90;;;;;;6174321;23;20043;-84
2022/08/19 04:52:24;;;;;;;14.82;8.98;;;14.20;99.90;;;;;;6149309;23;20507;-84
2022/08/19 04:54:49;;;;;;;11.68;7.70;;;14.20;99.90;;;;;;6175729;23;20323;-84
2022/08/19 04:57:15;;;;;;;15.60;9.35;;;14.20;99.90;;;;;;6174070;23;20084;-84
2022/08/19 04:59:40;;;;;;;13.13;9.15;;;14.20;99.90;;;;;;6175933;23;20017;-84
2022/08/19 05:02:08;;;;;;;13.10;9.10;;;14.20;99.90;;;;;;6174493;23;20028;-84
2022/08/19 05:04:35;;;;;;;15.35;8.90;;;14.20;99.90;;;;;;6175375;22;20017;-84
2022/08/19 05:07:01;;;;;;;13.60;9.02;;;14.20;99.90;;;;;;6174314;23;20096;-84
2022/08/19 05:09:27;;;;;;;11.48;7.85;;;14.20;99.90;;;;;;6174424;23;20029;-84
2022/08/19 05:11:53;;;;;;;16.58;9.15;;;14.20;99.90;;;;;;6174136;22;20098;-84
2022/08/19 05:14:20;;;;;;;14.00;9.15;;;14.20;99.90;;;;;;6174450;23;20086;-84
2022/08/19 05:16:46;;;;;;;12.82;8.52;;;14.30;99.90;;;;;;6173570;23;20040;-84
2022/08/19 05:24:41;;;;;;;12.20;8.18;;;14.30;99.90;;;;;;6173730;23;20025;-84
2022/08/19 05:27:07;;;;;;;14.40;9.30;;;14.40;99.90;;;;;;6174443;22;20025;-84
2022/08/19 05:29:36;;;;;;;14.50;9.95;;;14.40;99.90;;;;;;6173408;23;20021;-84
2022/08/19 05:32:04;;;;;;;16.05;10.30;;;14.40;99.90;;;;;;6174973;23;20025;-84
2022/08/19 05:34:32;;;;;;;19.05;11.95;;;14.40;99.90;;;;;;6175340;23;20017;-84
2022/08/19 05:36:59;;;;;;;17.92;11.07;;;14.50;99.90;;;;;;6174499;23;20017;-84
2022/08/19 05:39:28;;;;;;;14.65;10.18;;;14.50;99.90;;;;;;6174496;23;20099;-84
2022/08/19 05:42:00;;;;;;;18.65;11.55;;;14.50;99.90;;;;;;6174047;23;20012;-84
2022/08/19 05:44:31;;;;;;;18.23;11.30;;;14.50;99.90;;;;;;6174274;23;20508;-84
2022/08/19 05:47:01;;;;;;;16.10;10.05;;;14.60;99.90;;;;;;6175941;23;20099;-84
2022/08/19 05:49:28;;;;;;;18.70;11.18;;;14.60;99.90;;;;;;6175287;23;20429;-84
2022/08/19 05:51:55;;;;;;;16.73;10.52;;;14.60;99.90;;;;;;6175713;22;20186;-84
2022/08/19 05:54:22;;;;;;;19.67;11.70;;;14.70;99.90;;;;;;6149088;23;20017;-84
2022/08/19 05:56:49;;;;;;;17.40;10.55;;;14.70;99.90;;;;;;6175515;23;20074;-84
2022/08/19 05:59:16;;;;;;;18.40;11.75;;;14.80;99.90;;;;;;6149975;22;20016;-84
2022/08/19 06:01:44;;;;;;;16.15;10.23;;;14.80;99.90;;;;;;6148673;22;20017;-84
2022/08/19 06:04:10;;;;;;;17.98;10.95;;;14.80;99.90;;;;;;6175389;23;20379;-84
2022/08/19 06:06:36;;;;;;;17.27;10.93;;;14.90;99.90;;;;;;6123877;23;20021;-84
2022/08/19 06:09:04;;;;;;;19.35;12.07;;;14.90;99.90;;;;;;6149033;23;20013;-84
2022/08/19 06:11:37;;;;;;;15.02;10.73;;;15.00;99.90;;;;;;6148884;23;20526;-84
2022/08/19 06:14:07;;;;;;;21.40;12.75;;;15.10;99.90;;;;;;6149279;22;20028;-84
2022/08/19 06:16:34;;;;;;;19.55;12.75;;;15.10;99.90;;;;;;6124345;23;20017;-84
2022/08/19 06:19:03;;;;;;;17.42;10.85;;;15.20;99.90;;;;;;6175127;23;20013;-84
2022/08/19 06:21:29;;;;;;;22.60;13.43;;;15.20;99.90;;;;;;6174935;22;20502;-84
2022/08/19 06:23:56;;;;;;;19.20;13.05;;;15.30;99.90;;;;;;6149443;23;20023;-84
2022/08/19 06:26:23;;;;;;;20.75;13.60;;;15.30;99.90;;;;;;6148593;22;20032;-84
2022/08/19 06:28:50;;;;;;;19.77;13.30;;;15.40;99.90;;;;;;6175123;23;20025;-84
2022/08/19 06:31:18;;;;;;;21.40;14.02;;;15.40;99.90;;;;;;6175369;23;20017;-84
2022/08/19 06:33:44;;;;;;;21.98;14.32;;;15.60;99.90;;;;;;6148179;22;20453;-84
2022/08/19 06:36:37;;;;;;;24.05;14.25;;;15.60;99.90;;;;;;6148746;23;20100;-84
2022/08/19 06:39:08;;;;;;;22.08;14.30;;;15.70;99.90;;;;;;6149060;23;20025;-84
2022/08/19 06:41:42;;;;;;;19.40;12.73;;;15.70;99.90;;;;;;6148380;23;20453;-84
2022/08/19 06:44:09;;;;;;;23.65;13.65;;;15.80;99.90;;;;;;6149636;23;20021;-85
2022/08/19 06:46:36;;;;;;;22.65;13.50;;;15.80;99.90;;;;;;6124433;23;20074;-84
2022/08/19 06:49:02;;;;;;;19.45;13.15;;;15.90;99.90;;;;;;6176516;23;20017;-84
2022/08/19 06:51:28;;;;;;;20.35;13.80;;;15.90;99.90;;;;;;6176565;23;20070;-84
2022/08/19 06:53:54;;;;;;;21.73;13.65;;;16.00;99.90;;;;;;6149934;23;20044;-84
2022/08/19 06:56:25;;;;;;;21.42;13.20;;;16.10;99.90;;;;;;6149908;23;20063;-84
2022/08/19 06:58:52;;;;;;;23.67;14.95;;;16.10;99.90;;;;;;6149496;23;20092;-84
2022/08/19 07:01:19;;;;;;;23.40;14.75;;;16.20;99.90;;;;;;6150085;23;20021;-84
2022/08/19 07:03:46;;;;;;;24.23;14.82;;;16.30;99.90;;;;;;6150513;23;20091;-84
2022/08/19 07:06:15;;;;;;;23.70;15.13;;;16.30;99.90;;;;;;6125233;23;20021;-84
2022/08/19 07:08:42;;;;;;;26.17;15.05;;;16.40;99.90;;;;;;6149679;23;20046;-84
2022/08/19 07:11:09;;;;;;;25.20;15.43;;;16.50;99.90;;;;;;6150004;23;20077;-84
2022/08/19 07:13:36;;;;;;;24.63;16.05;;;16.50;99.90;;;;;;6149826;22;20084;-84
2022/08/19 07:16:05;;;;;;;23.63;16.08;;;16.70;99.90;;;;;;6124814;23;20028;-84
2022/08/19 07:18:30;;;;;;;23.70;15.93;;;16.70;99.90;;;;;;6150437;23;20368;-84
2022/08/19 07:21:04;;;;;;;23.88;14.88;;;16.80;99.90;;;;;;6124974;23;20096;-84
2022/08/19 07:23:30;;;;;;;26.83;15.50;;;16.90;99.90;;;;;;6125698;23;20495;-84
2022/08/19 07:25:56;;;;;;;25.92;15.73;;;17.00;99.90;;;;;;6149685;23;20592;-84
2022/08/19 07:28:22;;;;;;;25.45;15.70;;;17.10;99.90;;;;;;6125111;23;20028;-84
2022/08/19 07:30:49;;;;;;;20.98;14.45;;;17.20;99.90;;;;;;6148681;23;20017;-84
2022/08/19 07:33:16;;;;;;;19.77;13.73;;;17.20;99.90;;;;;;6150111;23;20024;-84
2022/08/19 07:35:41;;;;;;;18.20;13.63;;;17.30;99.90;;;;;;6149679;23;20479;-84
2022/08/19 07:38:07;;;;;;;19.30;14.10;;;17.40;99.90;;;;;;6149943;23;20021;-84
2022/08/19 07:40:33;;;;;;;22.95;14.00;;;17.40;99.90;;;;;;6176408;23;20403;-84
2022/08/19 07:42:58;;;;;;;21.60;12.95;;;17.50;99.90;;;;;;6150129;23;20017;-84
2022/08/19 07:45:24;;;;;;;18.98;13.43;;;17.60;99.90;;;;;;6124808;23;20395;-84
2022/08/19 07:47:50;;;;;;;22.40;14.25;;;17.80;99.90;;;;;;6149473;23;20024;-84
2022/08/19 07:50:18;;;;;;;22.63;13.32;;;17.80;99.90;;;;;;6162556;23;20236;-84
2022/08/19 07:52:44;;;;;;;18.02;14.07;;;17.90;99.90;;;;;;6176071;23;20017;-84
2022/08/19 07:55:10;;;;;;;18.55;12.90;;;18.00;99.90;;;;;;6174190;23;20032;-84
2022/08/19 07:57:36;;;;;;;18.60;14.00;;;18.00;99.90;;;;;;6174123;22;20028;-84
2022/08/19 08:00:03;;;;;;;18.92;12.32;;;18.10;99.90;;;;;;6173748;22;20056;-84
2022/08/19 08:02:28;;;;;;;20.23;13.80;;;18.10;99.90;;;;;;6174554;23;20028;-84
2022/08/19 08:10:27;;;;;;;16.52;11.32;;;18.40;99.90;;;;;;6118849;23;20450;-84
2022/08/19 08:12:53;;;;;;;19.60;11.75;;;18.50;99.90;;;;;;6118375;23;20025;-84
2022/08/19 08:15:19;;;;;;;17.73;11.80;;;18.60;99.90;;;;;;6117909;23;20442;-84
2022/08/19 08:17:45;;;;;;;16.85;11.63;;;18.70;99.90;;;;;;6143208;23;20022;-84
2022/08/19 08:20:12;;;;;;;16.38;11.57;;;18.90;99.90;;;;;;6119076;23;20021;-84
2022/08/19 08:25:26;;;;;;;19.25;11.02;;;19.20;99.90;;;;;;6143576;23;20107;-85
2022/08/19 08:27:52;;;;;;;15.38;10.27;;;19.40;99.90;;;;;;6142197;23;20520;-84
2022/08/19 08:30:21;;;;;;;9.95;8.55;;;19.50;99.90;;;;;;6143524;23;20018;-85
2022/08/19 08:32:47;;;;;;;11.70;8.15;;;19.70;99.90;;;;;;6142593;23;20049;-84
2022/08/19 08:35:16;;;;;;;12.50;8.50;;;19.90;99.90;;;;;;6118936;23;20079;-85
2022/08/19 08:37:43;;;;;;;13.43;10.20;;;20.10;99.90;;;;;;6142599;23;20028;-84
2022/08/19 08:40:28;;;;;;;12.25;8.63;;;20.30;99.90;;;;;;6118855;23;20021;-85
2022/08/19 08:43:04;;;;;;;13.77;8.85;;;20.50;99.90;;;;;;6117780;23;20028;-85
2022/08/19 08:45:32;;;;;;;15.38;9.43;;;20.60;99.90;;;;;;6118765;23;20566;-84
2022/08/19 08:48:02;;;;;;;11.95;8.30;;;20.60;99.90;;;;;;6166424;23;20017;-84
2022/08/19 08:50:41;;;;;;;14.73;9.07;;;20.80;99.90;;;;;;6173893;23;20084;-85
2022/08/19 08:53:08;;;;;;;13.73;10.98;;;21.00;99.90;;;;;;6176300;23;20017;-85
2022/08/19 08:55:34;;;;;;;11.00;6.97;;;21.10;99.90;;;;;;6175610;23;20025;-85
2022/08/19 08:58:13;;;;;;;11.30;8.57;;;21.20;99.90;;;;;;6173744;22;20009;-85
2022/08/19 09:00:43;;;;;;;11.77;9.20;;;21.30;99.90;;;;;;6149293;22;20428;-85
2022/08/19 09:03:25;;;;;;;12.52;7.85;;;21.50;99.90;;;;;;6173971;22;20017;-85
2022/08/19 09:06:03;;;;;;;10.77;7.78;;;21.60;99.90;;;;;;6173874;23;20085;-85
2022/08/19 09:08:50;;;;;;;12.98;8.10;;;21.80;99.90;;;;;;6176476;22;20028;-85
2022/08/19 09:11:42;;;;;;;10.88;8.20;;;21.90;99.90;;;;;;6175946;22;20013;-85
2022/08/19 09:14:31;;;;;;;10.50;8.25;;;22.10;99.90;;;;;;6174437;22;20058;-85
2022/08/19 09:16:59;;;;;;;12.50;8.13;;;22.20;99.90;;;;;;6175559;23;20091;-85
2022/08/19 09:19:24;;;;;;;9.85;7.90;;;22.30;99.90;;;;;;6174274;22;20013;-85
2022/08/19 09:21:50;;;;;;;10.82;6.78;;;22.40;99.90;;;;;;6173699;22;20441;-85
2022/08/19 09:24:16;;;;;;;8.07;5.68;;;22.50;99.90;;;;;;6175841;23;20076;-85
2022/08/19 09:26:43;;;;;;;7.90;5.82;;;22.60;99.90;;;;;;6175347;23;20025;-85
2022/08/19 09:29:10;;;;;;;10.07;7.00;;;22.70;99.90;;;;;;6149523;23;20013;-85
2022/08/19 09:31:36;;;;;;;8.38;5.50;;;22.80;99.90;;;;;;6173894;23;20020;-85
2022/08/19 09:34:04;;;;;;;9.35;5.53;;;22.90;99.90;;;;;;6175801;23;20020;-85
2022/08/19 09:36:35;;;;;;;9.82;5.40;;;23.00;99.90;;;;;;6149700;23;20021;-85
2022/08/19 09:39:03;;;;;;;7.25;5.53;;;23.20;99.90;;;;;;6175934;23;20013;-85
2022/08/19 09:41:29;;;;;;;10.80;5.30;;;23.40;99.90;;;;;;6175897;22;20056;-85
2022/08/19 09:43:57;;;;;;;8.32;6.82;;;23.40;99.90;;;;;;6173710;22;20024;-85
2022/08/19 09:46:25;;;;;;;7.57;5.07;;;23.40;99.90;;;;;;6176177;22;20017;-85
2022/08/19 09:48:52;;;;;;;7.68;6.22;;;23.50;99.90;;;;;;6148508;22;20017;-85
2022/08/19 09:51:23;;;;;;;7.97;6.10;;;23.60;99.90;;;;;;6148877;23;20049;-85
2022/08/19 09:53:50;;;;;;;11.23;6.38;;;23.80;99.90;;;;;;6124093;23;20383;-85
2022/08/19 09:56:18;;;;;;;9.77;7.35;;;23.80;99.90;;;;;;6149232;23;20467;-85
2022/08/19 09:58:43;;;;;;;10.18;7.63;;;24.00;99.90;;;;;;6175502;23;20128;-85
2022/08/19 10:01:15;;;;;;;10.00;5.72;;;24.10;99.90;;;;;;6149194;23;20059;-85
2022/08/19 10:03:40;;;;;;;9.50;6.13;;;24.10;99.90;;;;;;6148947;23;20021;-85
2022/08/19 10:06:06;;;;;;;8.82;6.60;;;24.20;99.90;;;;;;6175863;23;20021;-85
2022/08/19 10:08:36;;;;;;;9.18;6.63;;;24.40;99.90;;;;;;6124353;23;20013;-85
2022/08/19 10:11:03;;;;;;;9.13;6.07;;;24.40;99.90;;;;;;6148682;23;20035;-85
2022/08/19 10:13:31;;;;;;;11.13;6.63;;;24.60;99.90;;;;;;6124357;23;20048;-85
2022/08/19 10:16:04;;;;;;;10.40;7.50;;;24.60;99.90;;;;;;6175458;23;20354;-85
2022/08/19 10:18:33;;;;;;;8.98;6.97;;;24.70;99.90;;;;;;6175807;23;20502;-85
2022/08/19 10:21:10;;;;;;;8.45;7.28;;;24.70;99.90;;;;;;6150581;23;20416;-85
2022/08/19 10:23:38;;;;;;;10.07;7.07;;;24.90;99.90;;;;;;6176128;23;20092;-85
2022/08/19 10:26:05;;;;;;;9.68;7.75;;;25.00;99.90;;;;;;6150025;23;20091;-85
2022/08/19 10:28:37;;;;;;;10.57;7.95;;;25.10;99.90;;;;;;6150296;23;20040;-85
2022/08/19 10:31:07;;;;;;;7.85;5.97;;;25.20;99.90;;;;;;6176738;23;20044;-85
2022/08/19 10:33:34;;;;;;;8.30;5.65;;;25.30;99.90;;;;;;6254492;22;20010;-85
2022/08/19 10:36:04;;;;;;;8.45;5.72;;;25.40;99.90;;;;;;6125689;23;20276;-85
2022/08/19 10:38:31;;;;;;;11.18;5.85;;;25.50;99.90;;;;;;6176103;23;20013;-86
2022/08/19 10:40:57;;;;;;;9.32;6.90;;;25.70;99.90;;;;;;6149632;23;20028;-86
2022/08/19 10:43:22;;;;;;;8.82;6.53;;;25.80;99.90;;;;;;6177006;23;20009;-85
2022/08/19 10:46:05;;;;;;;9.95;5.88;;;25.90;99.90;;;;;;6124944;23;20047;-85
2022/08/19 10:48:32;;;;;;;7.07;6.18;;;26.00;99.90;;;;;;6150408;23;20025;-85
2022/08/19 10:53:42;;;;;;;7.47;6.05;;;26.10;99.90;;;;;;6174058;23;20021;-86
2022/08/19 10:58:53;;;;;;;8.98;6.53;;;26.30;99.90;;;;;;6176447;22;20056;-86
2022/08/19 11:01:18;;;;;;;7.75;5.50;;;26.40;99.90;;;;;;6150114;23;20032;-86
2022/08/19 11:03:44;;;;;;;8.50;5.70;;;26.60;99.90;;;;;;6149610;23;20468;-85
2022/08/19 11:06:11;;;;;;;7.55;5.35;;;26.70;99.90;;;;;;6150043;23;20058;-85
2022/08/19 11:08:37;;;;;;;8.35;5.97;;;26.80;99.90;;;;;;6175861;22;20046;-86
2022/08/19 11:11:03;;;;;;;7.97;6.15;;;26.90;99.90;;;;;;6174504;22;20013;-86
2022/08/19 11:13:33;;;;;;;8.32;6.68;;;27.00;99.90;;;;;;6174880;23;20021;-86
2022/08/19 11:16:00;;;;;;;8.50;6.07;;;27.00;99.40;;;;;;6149679;22;20032;-86
2022/08/19 11:18:26;;;;;;;9.07;7.10;;;27.10;99.90;;;;;;6175611;22;20014;-86
2022/08/19 11:20:52;;;;;;;7.47;6.07;;;27.20;99.80;;;;;;6175836;23;20086;-86
2022/08/19 11:23:18;;;;;;;9.80;6.25;;;27.20;99.80;;;;;;6175890;23;20013;-86
2022/08/19 11:25:45;;;;;;;8.60;5.60;;;27.40;99.30;;;;;;6149325;23;20028;-86
2022/08/19 11:28:11;;;;;;;10.13;6.68;;;27.40;99.30;;;;;;6175367;23;20107;-86
2022/08/19 11:30:38;;;;;;;10.45;7.30;;;27.50;98.70;;;;;;6174001;23;20465;-86
2022/08/19 11:33:03;;;;;;;9.02;7.40;;;27.60;98.40;;;;;;6174745;22;20021;-86
2022/08/19 11:35:29;;;;;;;8.65;5.85;;;27.60;98.20;;;;;;6174544;23;20021;-85
2022/08/19 11:37:55;;;;;;;8.27;7.10;;;27.50;98.40;;;;;;6149235;23;20027;-86
2022/08/19 11:40:21;;;;;;;9.95;8.07;;;27.40;97.90;;;;;;6176502;23;20025;-85
2022/08/19 11:42:56;;;;;;;10.05;8.30;;;27.30;98.60;;;;;;6174561;23;20105;-86
2022/08/19 11:45:26;;;;;;;7.93;6.60;;;27.30;98.30;;;;;;6176590;23;20035;-85
2022/08/19 11:47:52;;;;;;;11.05;8.02;;;27.30;98.80;;;;;;6176287;22;20024;-86
2022/08/19 11:50:18;;;;;;;8.07;6.97;;;27.50;98.90;;;;;;6174327;23;20025;-86
2022/08/19 11:52:44;;;;;;;9.40;8.00;;;27.60;98.70;;;;;;6173680;23;20147;-86
2022/08/19 11:55:11;;;;;;;9.20;7.78;;;27.90;97.80;;;;;;6149681;23;20448;-86
2022/08/19 11:57:37;;;;;;;9.25;8.25;;;27.90;97.50;;;;;;6174767;23;20341;-86
2022/08/19 12:00:06;;;;;;;9.02;7.68;;;28.00;97.80;;;;;;6174438;23;20021;-86
2022/08/19 12:02:32;;;;;;;8.38;6.90;;;27.90;97.60;;;;;;6174920;22;20071;-86
2022/08/19 12:04:58;;;;;;;12.57;7.32;;;27.70;98.10;;;;;;6174026;23;20445;-86
2022/08/19 12:07:24;;;;;;;9.52;7.45;;;27.50;98.00;;;;;;6173862;23;20089;-86
2022/08/19 12:09:50;;;;;;;9.95;8.25;;;27.40;98.00;;;;;;6176185;23;20017;-86
2022/08/19 12:12:16;;;;;;;10.10;7.97;;;27.20;97.90;;;;;;6176141;23;20021;-86
2022/08/19 12:14:42;;;;;;;12.95;9.68;;;27.10;98.60;;;;;;6176089;23;20017;-86
2022/08/19 12:17:08;;;;;;;12.20;10.70;;;27.00;98.70;;;;;;6174286;23;20383;-86
2022/08/19 12:19:37;;;;;;;13.40;10.43;;;27.00;99.00;;;;;;6173590;22;20103;-85
2022/08/19 12:22:03;;;;;;;12.63;9.98;;;26.90;99.30;;;;;;6174651;23;20092;-86
2022/08/19 12:24:31;;;;;;;13.73;10.73;;;26.70;99.60;;;;;;6174608;23;20021;-85
2022/08/19 12:26:58;;;;;;;13.90;9.65;;;26.70;99.60;;;;;;6176053;23;20024;-86
2022/08/19 12:29:28;;;;;;;11.88;9.98;;;26.60;99.70;;;;;;6174371;23;20021;-86
2022/08/19 12:32:00;;;;;;;12.93;9.20;;;26.70;99.90;;;;;;6176635;23;20020;-86
2022/08/19 12:34:29;;;;;;;9.63;8.63;;;26.70;99.70;;;;;;6176017;23;20013;-85
2022/08/19 12:37:00;;;;;;;10.85;8.27;;;26.70;99.70;;;;;;6174199;22;20014;-86
2022/08/19 12:39:26;;;;;;;12.38;8.65;;;26.90;99.50;;;;;;6174147;22;20013;-86
2022/08/19 12:41:52;;;;;;;9.75;7.70;;;26.90;99.60;;;;;;6173696;23;20035;-86
2022/08/19 12:44:18;;;;;;;10.95;8.50;;;27.00;99.10;;;;;;6174974;22;20013;-86
2022/08/19 12:46:44;;;;;;;10.32;7.10;;;27.10;98.80;;;;;;6174347;23;20031;-86
2022/08/19 12:49:10;;;;;;;8.15;6.63;;;27.10;98.70;;;;;;6174945;23;20442;-86
2022/08/19 12:51:35;;;;;;;9.38;6.68;;;27.10;98.40;;;;;;6124449;23;20100;-85
2022/08/19 12:54:01;;;;;;;9.75;5.90;;;27.30;98.10;;;;;;6149452;23;20100;-86
2022/08/19 12:56:27;;;;;;;9.18;6.55;;;27.20;98.00;;;;;;6149731;23;20032;-86
2022/08/19 12:58:52;;;;;;;7.05;5.20;;;27.30;98.40;;;;;;6175694;23;20039;-86
2022/08/19 13:01:19;;;;;;;8.77;6.53;;;27.40;98.10;;;;;;6176210;23;20021;-86
2022/08/19 13:03:45;;;;;;;9.07;5.22;;;27.50;98.00;;;;;;6148640;23;20563;-86